createdAt,value
2018-12-06T00:00:11.541Z,1000.66
2018-12-06T00:01:11.564Z,1000.62
2018-12-06T00:02:11.527Z,1000.61
2018-12-06T00:03:11.507Z,1000.64
2018-12-06T00:04:11.505Z,1000.64
2018-12-06T00:05:11.488Z,1000.61
2018-12-06T00:06:11.474Z,1000.66
2018-12-06T00:07:11.478Z,1000.73
2018-12-06T00:08:11.457Z,1000.71
2018-12-06T00:09:11.445Z,1000.70
2018-12-06T00:10:21.990Z,1000.76
2018-12-06T00:11:11.424Z,1000.78
2018-12-06T00:12:11.413Z,1000.76
2018-12-06T00:13:11.495Z,1000.80
2018-12-06T00:14:11.393Z,1000.72
2018-12-06T00:15:11.387Z,1000.76
2018-12-06T00:16:11.369Z,1000.71
2018-12-06T00:17:11.359Z,1000.77
2018-12-06T00:18:11.356Z,1000.81
2018-12-06T00:19:11.379Z,1000.80
2018-12-06T00:20:11.326Z,1000.79
2018-12-06T00:21:11.319Z,1000.80
2018-12-06T00:22:11.310Z,1000.80
2018-12-06T00:23:11.302Z,1000.80
2018-12-06T00:24:11.288Z,1000.80
2018-12-06T00:25:11.488Z,1000.80
2018-12-06T00:26:11.265Z,1000.86
2018-12-06T00:27:11.259Z,1000.86
2018-12-06T00:28:11.248Z,1000.87
2018-12-06T00:29:11.243Z,1000.88
2018-12-06T00:30:11.225Z,1000.91
2018-12-06T00:31:11.233Z,1000.89
2018-12-06T00:32:11.207Z,1000.97
2018-12-06T00:33:11.190Z,1000.94
2018-12-06T00:34:11.183Z,1000.97
2018-12-06T00:35:11.177Z,1000.98
2018-12-06T00:36:11.158Z,1001.07
2018-12-06T00:37:11.194Z,1000.98
2018-12-06T00:38:11.143Z,1000.98
2018-12-06T00:39:11.130Z,1000.99
2018-12-06T00:40:11.116Z,1001.09
2018-12-06T00:41:21.220Z,1001.05
2018-12-06T00:42:11.103Z,1001.11
2018-12-06T00:43:11.107Z,1001.09
2018-12-06T00:44:11.077Z,1001.05
2018-12-06T00:45:11.064Z,1001.09
2018-12-06T00:46:11.059Z,1001.11
2018-12-06T00:47:11.046Z,1001.07
2018-12-06T00:48:11.037Z,1001.09
2018-12-06T00:49:11.818Z,1001.07
2018-12-06T00:50:11.011Z,1001.11
2018-12-06T00:51:11.006Z,1001.08
2018-12-06T00:52:10.991Z,1001.10
2018-12-06T00:53:10.989Z,1001.12
2018-12-06T00:54:10.981Z,1001.09
2018-12-06T00:55:10.995Z,1001.17
2018-12-06T00:56:10.956Z,1001.18
2018-12-06T00:57:10.940Z,1001.10
2018-12-06T00:58:10.935Z,1001.09
2018-12-06T00:59:10.928Z,1001.08
2018-12-06T01:00:10.919Z,1001.12
2018-12-06T01:01:10.935Z,1001.13
2018-12-06T01:02:10.888Z,1001.09
2018-12-06T01:03:18.470Z,1001.10
2018-12-06T01:04:10.869Z,1001.05
2018-12-06T01:05:10.854Z,1001.06
2018-12-06T01:06:10.851Z,1001.06
2018-12-06T01:07:18.535Z,1001.05
2018-12-06T01:08:10.826Z,1001.04
2018-12-06T01:09:10.815Z,1000.99
2018-12-06T01:10:10.808Z,1001.03
2018-12-06T01:11:10.793Z,1001.09
2018-12-06T01:12:10.786Z,1001.08
2018-12-06T01:13:10.800Z,1001.02
2018-12-06T01:14:10.767Z,1000.96
2018-12-06T01:15:10.782Z,1001.01
2018-12-06T01:16:10.739Z,1000.99
2018-12-06T01:17:10.729Z,1001.03
2018-12-06T01:18:10.718Z,1000.97
2018-12-06T01:19:11.039Z,1000.99
2018-12-06T01:20:10.708Z,1000.99
2018-12-06T01:21:10.693Z,1001.01
2018-12-06T01:22:10.683Z,1001.04
2018-12-06T01:23:10.667Z,1001.02
2018-12-06T01:24:10.662Z,1001.00
2018-12-06T01:25:10.677Z,1000.99
2018-12-06T01:26:10.642Z,1000.99
2018-12-06T01:27:10.625Z,1000.93
2018-12-06T01:28:10.613Z,1000.97
2018-12-06T01:29:10.607Z,1001.01
2018-12-06T01:30:10.597Z,1001.00
2018-12-06T01:31:11.350Z,1000.98
2018-12-06T01:32:10.576Z,1000.94
2018-12-06T01:33:10.561Z,1000.89
2018-12-06T01:34:10.555Z,1000.92
2018-12-06T01:35:10.538Z,1000.93
2018-12-06T01:36:10.534Z,1000.92
2018-12-06T01:37:10.557Z,1000.85
2018-12-06T01:38:22.105Z,1000.84
2018-12-06T01:39:10.504Z,1000.91
2018-12-06T01:40:10.490Z,1000.86
2018-12-06T01:41:10.481Z,1000.87
2018-12-06T01:42:10.471Z,1000.92
2018-12-06T01:43:10.507Z,1000.92
2018-12-06T01:44:10.449Z,1000.91
2018-12-06T01:45:10.434Z,1000.86
2018-12-06T01:46:10.425Z,1000.84
2018-12-06T01:47:10.423Z,1000.84
2018-12-06T01:48:10.409Z,1000.84
2018-12-06T01:49:11.965Z,1000.82
2018-12-06T01:50:10.389Z,1000.89
2018-12-06T01:51:10.371Z,1000.80
2018-12-06T01:52:10.372Z,1000.75
2018-12-06T01:53:10.351Z,1000.77
2018-12-06T01:54:10.339Z,1000.82
2018-12-06T01:55:10.531Z,1000.75
2018-12-06T01:56:10.324Z,1000.76
2018-12-06T01:57:10.312Z,1000.75
2018-12-06T01:58:10.306Z,1000.80
2018-12-06T01:59:10.288Z,1000.75
2018-12-06T02:00:10.281Z,1000.73
2018-12-06T02:01:10.301Z,1000.72
2018-12-06T02:02:10.263Z,1000.76
2018-12-06T02:03:10.245Z,1000.69
2018-12-06T02:04:10.239Z,1000.71
2018-12-06T02:05:10.235Z,1000.68
2018-12-06T02:06:10.215Z,1000.64
2018-12-06T02:07:10.221Z,1000.70
2018-12-06T02:08:10.195Z,1000.66
2018-12-06T02:09:21.572Z,1000.67
2018-12-06T02:10:10.171Z,1000.68
2018-12-06T02:11:10.164Z,1000.64
2018-12-06T02:12:10.154Z,1000.69
2018-12-06T02:13:10.179Z,1000.71
2018-12-06T02:14:10.137Z,1000.74
2018-12-06T02:15:10.122Z,1000.74
2018-12-06T02:16:10.113Z,1000.75
2018-12-06T02:17:10.102Z,1000.75
2018-12-06T02:18:10.089Z,1000.72
2018-12-06T02:19:10.117Z,1000.73
2018-12-06T02:20:10.069Z,1000.83
2018-12-06T02:21:10.055Z,1000.82
2018-12-06T02:22:10.048Z,1000.83
2018-12-06T02:23:10.034Z,1000.80
2018-12-06T02:24:10.026Z,1000.83
2018-12-06T02:25:10.057Z,1000.82
2018-12-06T02:26:10.005Z,1000.86
2018-12-06T02:27:10.002Z,1000.81
2018-12-06T02:28:09.993Z,1000.81
2018-12-06T02:29:09.976Z,1000.79
2018-12-06T02:30:09.965Z,1000.79
2018-12-06T02:31:10.116Z,1000.81
2018-12-06T02:32:09.940Z,1000.82
2018-12-06T02:33:09.937Z,1000.80
2018-12-06T02:34:09.929Z,1000.67
2018-12-06T02:35:09.911Z,1000.71
2018-12-06T02:36:09.907Z,1000.72
2018-12-06T02:37:09.929Z,1000.65
2018-12-06T02:38:09.880Z,1000.73
2018-12-06T02:39:09.870Z,1000.73
2018-12-06T02:40:19.846Z,1000.76
2018-12-06T02:41:09.854Z,1000.72
2018-12-06T02:42:09.843Z,1000.74
2018-12-06T02:43:09.863Z,1000.75
2018-12-06T02:44:09.818Z,1000.74
2018-12-06T02:45:09.808Z,1000.74
2018-12-06T02:46:09.797Z,1000.72
2018-12-06T02:47:09.792Z,1000.68
2018-12-06T02:48:09.772Z,1000.66
2018-12-06T02:49:09.781Z,1000.65
2018-12-06T02:50:09.769Z,1000.62
2018-12-06T02:51:09.742Z,1000.63
2018-12-06T02:52:09.740Z,1000.62
2018-12-06T02:53:09.727Z,1000.62
2018-12-06T02:54:09.710Z,1000.58
2018-12-06T02:55:10.496Z,1000.62
2018-12-06T02:56:09.692Z,1000.79
2018-12-06T02:57:09.680Z,1000.83
2018-12-06T02:58:09.676Z,1000.83
2018-12-06T02:59:09.663Z,1000.85
2018-12-06T03:00:09.655Z,1000.87
2018-12-06T03:01:09.678Z,1000.89
2018-12-06T03:02:09.634Z,1000.88
2018-12-06T03:03:09.617Z,1000.81
2018-12-06T03:04:09.612Z,1000.78
2018-12-06T03:05:09.599Z,1000.76
2018-12-06T03:06:09.591Z,1000.80
2018-12-06T03:07:09.609Z,1000.79
2018-12-06T03:08:09.577Z,1000.80
2018-12-06T03:09:09.561Z,1000.82
2018-12-06T03:10:09.549Z,1000.84
2018-12-06T03:11:19.612Z,1000.79
2018-12-06T03:12:09.532Z,1000.75
2018-12-06T03:13:09.584Z,1000.77
2018-12-06T03:14:09.509Z,1000.72
2018-12-06T03:15:09.493Z,1000.81
2018-12-06T03:16:09.489Z,1000.74
2018-12-06T03:17:09.478Z,1000.78
2018-12-06T03:18:09.469Z,1000.85
2018-12-06T03:19:09.499Z,1000.79
2018-12-06T03:20:09.443Z,1000.75
2018-12-06T03:21:09.434Z,1000.74
2018-12-06T03:22:09.425Z,1000.86
2018-12-06T03:23:09.410Z,1000.85
2018-12-06T03:24:09.404Z,1000.83
2018-12-06T03:25:09.434Z,1000.82
2018-12-06T03:26:09.383Z,1000.74
2018-12-06T03:27:09.370Z,1000.76
2018-12-06T03:28:09.365Z,1000.73
2018-12-06T03:29:09.352Z,1000.68
2018-12-06T03:30:09.349Z,1000.61
2018-12-06T03:31:09.369Z,1000.65
2018-12-06T03:32:09.317Z,1000.74
2018-12-06T03:33:09.310Z,1000.70
2018-12-06T03:34:09.296Z,1000.62
2018-12-06T03:35:09.283Z,1000.79
2018-12-06T03:36:09.281Z,1000.63
2018-12-06T03:37:09.589Z,1000.64
2018-12-06T03:38:09.252Z,1000.70
2018-12-06T03:39:09.247Z,1000.62
2018-12-06T03:40:09.231Z,1000.63
2018-12-06T03:41:09.222Z,1000.66
2018-12-06T03:42:20.093Z,1000.66
2018-12-06T03:43:09.200Z,1000.70
2018-12-06T03:44:09.197Z,1000.61
2018-12-06T03:45:09.182Z,1000.69
2018-12-06T03:46:09.169Z,1000.65
2018-12-06T03:47:09.167Z,1000.64
2018-12-06T03:48:09.186Z,1000.67
2018-12-06T03:49:09.140Z,1000.63
2018-12-06T03:50:09.132Z,1000.84
2018-12-06T03:51:09.119Z,1000.59
2018-12-06T03:52:09.108Z,1000.69
2018-12-06T03:53:09.100Z,1000.74
2018-12-06T03:54:09.123Z,1000.75
2018-12-06T03:55:09.084Z,1000.69
2018-12-06T03:56:09.066Z,1000.72
2018-12-06T03:57:09.056Z,1000.75
2018-12-06T03:58:09.048Z,1000.72
2018-12-06T03:59:09.035Z,1000.82
2018-12-06T04:00:09.061Z,1000.78
2018-12-06T04:01:09.023Z,1000.81
2018-12-06T04:02:09.008Z,1000.79
2018-12-06T04:03:08.994Z,1000.77
2018-12-06T04:04:08.982Z,1000.80
2018-12-06T04:05:08.970Z,1000.81
2018-12-06T04:06:09.001Z,1000.84
2018-12-06T04:07:08.962Z,1000.83
2018-12-06T04:08:08.944Z,1000.85
2018-12-06T04:09:08.934Z,1000.89
2018-12-06T04:10:08.924Z,1000.91
2018-12-06T04:11:08.914Z,1000.87
2018-12-06T04:12:08.918Z,1000.89
2018-12-06T04:13:19.460Z,1000.86
2018-12-06T04:14:08.883Z,1000.83
2018-12-06T04:15:08.872Z,1000.83
2018-12-06T04:16:08.863Z,1000.80
2018-12-06T04:17:08.844Z,1000.78
2018-12-06T04:18:08.878Z,1000.79
2018-12-06T04:19:08.825Z,1000.78
2018-12-06T04:20:08.813Z,1000.83
2018-12-06T04:21:08.813Z,1000.88
2018-12-06T04:22:08.800Z,1000.80
2018-12-06T04:23:08.789Z,1000.84
2018-12-06T04:24:09.085Z,1000.78
2018-12-06T04:25:08.761Z,1000.77
2018-12-06T04:26:08.829Z,1000.80
2018-12-06T04:27:08.747Z,1000.78
2018-12-06T04:28:08.731Z,1000.91
2018-12-06T04:29:08.720Z,1000.84
2018-12-06T04:30:09.109Z,1000.89
2018-12-06T04:31:08.704Z,1000.86
2018-12-06T04:32:08.697Z,1000.85
2018-12-06T04:33:08.689Z,1000.83
2018-12-06T04:34:08.670Z,1000.89
2018-12-06T04:35:08.665Z,1000.85
2018-12-06T04:36:09.606Z,1000.89
2018-12-06T04:37:08.639Z,1000.81
2018-12-06T04:38:08.628Z,1000.85
2018-12-06T04:39:08.632Z,1000.88
2018-12-06T04:40:08.605Z,1000.87
2018-12-06T04:41:08.595Z,1000.87
2018-12-06T04:42:08.612Z,1000.88
2018-12-06T04:43:08.575Z,1000.88
2018-12-06T04:44:18.772Z,1000.90
2018-12-06T04:45:08.557Z,1000.90
2018-12-06T04:46:08.550Z,1000.87
2018-12-06T04:47:08.535Z,1000.89
2018-12-06T04:48:21.980Z,1000.91
2018-12-06T04:49:15.491Z,1000.94
2018-12-06T04:50:08.503Z,1000.93
2018-12-06T04:51:08.492Z,1000.90
2018-12-06T04:52:08.485Z,1000.93
2018-12-06T04:53:08.479Z,1000.89
2018-12-06T04:54:08.484Z,1000.88
2018-12-06T04:55:08.457Z,1000.83
2018-12-06T04:56:15.737Z,1000.84
2018-12-06T04:57:08.435Z,1000.87
2018-12-06T04:58:08.423Z,1000.91
2018-12-06T04:59:08.419Z,1000.84
2018-12-06T05:00:09.192Z,1000.79
2018-12-06T05:01:08.400Z,1000.77
2018-12-06T05:02:08.384Z,1000.79
2018-12-06T05:03:08.373Z,1000.80
2018-12-06T05:04:08.364Z,1000.76
2018-12-06T05:05:08.348Z,1000.84
2018-12-06T05:06:08.372Z,1000.86
2018-12-06T05:07:08.331Z,1000.81
2018-12-06T05:08:08.315Z,1000.78
2018-12-06T05:09:08.306Z,1000.81
2018-12-06T05:10:08.301Z,1000.88
2018-12-06T05:11:08.291Z,1000.89
2018-12-06T05:12:08.314Z,1000.94
2018-12-06T05:13:08.265Z,1000.92
2018-12-06T05:14:08.252Z,1000.95
2018-12-06T05:15:08.253Z,1000.92
2018-12-06T05:16:08.239Z,1000.94
2018-12-06T05:17:08.237Z,1001.07
2018-12-06T05:18:08.249Z,1001.03
2018-12-06T05:19:08.200Z,1001.03
2018-12-06T05:20:08.192Z,1000.96
2018-12-06T05:21:08.195Z,1000.93
2018-12-06T05:22:08.173Z,1000.92
2018-12-06T05:23:08.165Z,1000.93
2018-12-06T05:24:08.674Z,1000.90
2018-12-06T05:25:08.137Z,1000.86
2018-12-06T05:26:08.128Z,1000.86
2018-12-06T05:27:19.117Z,1000.86
2018-12-06T05:28:08.108Z,1000.84
2018-12-06T05:29:08.097Z,1000.82
2018-12-06T05:30:08.534Z,1000.80
2018-12-06T05:31:08.083Z,1000.77
2018-12-06T05:32:08.063Z,1000.82
2018-12-06T05:33:08.055Z,1000.84
2018-12-06T05:34:08.050Z,1000.80
2018-12-06T05:35:08.041Z,1000.86
2018-12-06T05:36:08.062Z,1000.87
2018-12-06T05:37:08.009Z,1000.89
2018-12-06T05:38:08.007Z,1000.97
2018-12-06T05:39:07.994Z,1000.98
2018-12-06T05:40:07.989Z,1000.92
2018-12-06T05:41:07.970Z,1000.89
2018-12-06T05:42:08.692Z,1000.96
2018-12-06T05:43:07.952Z,1000.96
2018-12-06T05:44:07.940Z,1000.98
2018-12-06T05:45:07.934Z,1001.01
2018-12-06T05:46:07.925Z,1001.04
2018-12-06T05:47:07.905Z,1001.03
2018-12-06T05:48:07.911Z,1001.01
2018-12-06T05:49:07.890Z,1001.20
2018-12-06T05:50:07.877Z,1001.27
2018-12-06T05:51:07.871Z,1001.35
2018-12-06T05:52:07.866Z,1001.39
2018-12-06T05:53:07.846Z,1001.47
2018-12-06T05:54:07.872Z,1001.48
2018-12-06T05:55:07.827Z,1001.48
2018-12-06T05:56:07.820Z,1001.43
2018-12-06T05:57:07.801Z,1001.48
2018-12-06T05:58:18.378Z,1001.48
2018-12-06T05:59:07.787Z,1001.41
2018-12-06T06:00:08.203Z,1001.47
2018-12-06T06:01:07.763Z,1001.47
2018-12-06T06:02:07.754Z,1001.40
2018-12-06T06:03:07.753Z,1001.44
2018-12-06T06:04:07.728Z,1001.47
2018-12-06T06:05:07.724Z,1001.45
2018-12-06T06:06:07.730Z,1001.45
2018-12-06T06:07:07.701Z,1001.44
2018-12-06T06:08:07.688Z,1001.47
2018-12-06T06:09:07.674Z,1001.53
2018-12-06T06:10:07.665Z,1001.50
2018-12-06T06:11:07.667Z,1001.57
2018-12-06T06:12:08.464Z,1001.58
2018-12-06T06:13:07.640Z,1001.51
2018-12-06T06:14:07.629Z,1001.52
2018-12-06T06:15:07.614Z,1001.47
2018-12-06T06:16:07.608Z,1001.50
2018-12-06T06:17:07.604Z,1001.54
2018-12-06T06:18:07.599Z,1001.54
2018-12-06T06:19:07.578Z,1001.56
2018-12-06T06:20:07.559Z,1001.51
2018-12-06T06:21:07.557Z,1001.52
2018-12-06T06:22:07.545Z,1001.48
2018-12-06T06:23:07.536Z,1001.53
2018-12-06T06:24:07.560Z,1001.56
2018-12-06T06:25:07.512Z,1001.66
2018-12-06T06:26:07.500Z,1001.58
2018-12-06T06:27:07.491Z,1001.57
2018-12-06T06:28:07.479Z,1001.64
2018-12-06T06:29:20.975Z,1001.60
2018-12-06T06:30:07.456Z,1001.61
2018-12-06T06:31:07.455Z,1001.67
2018-12-06T06:32:07.436Z,1001.62
2018-12-06T06:33:08.782Z,1001.63
2018-12-06T06:34:07.419Z,1001.57
2018-12-06T06:35:07.446Z,1001.67
2018-12-06T06:36:07.401Z,1001.67
2018-12-06T06:37:07.393Z,1001.71
2018-12-06T06:38:07.439Z,1001.73
2018-12-06T06:39:07.365Z,1001.66
2018-12-06T06:40:07.355Z,1001.70
2018-12-06T06:41:08.149Z,1001.74
2018-12-06T06:42:07.338Z,1001.75
2018-12-06T06:43:07.321Z,1001.77
2018-12-06T06:44:07.308Z,1001.80
2018-12-06T06:45:07.306Z,1001.77
2018-12-06T06:46:07.290Z,1001.75
2018-12-06T06:47:07.350Z,1001.73
2018-12-06T06:48:07.277Z,1001.79
2018-12-06T06:49:13.535Z,1001.80
2018-12-06T06:50:08.244Z,1001.81
2018-12-06T06:51:07.241Z,1001.77
2018-12-06T06:52:07.230Z,1001.76
2018-12-06T06:53:07.266Z,1001.81
2018-12-06T06:54:07.210Z,1001.88
2018-12-06T06:55:07.198Z,1001.79
2018-12-06T06:56:07.184Z,1001.77
2018-12-06T06:57:07.173Z,1001.79
2018-12-06T06:58:07.166Z,1001.80
2018-12-06T06:59:07.208Z,1001.80
2018-12-06T07:00:17.512Z,1001.87
2018-12-06T07:01:07.140Z,1001.84
2018-12-06T07:02:07.123Z,1001.90
2018-12-06T07:03:07.113Z,1001.89
2018-12-06T07:04:07.103Z,1001.93
2018-12-06T07:05:07.742Z,1001.83
2018-12-06T07:06:07.087Z,1001.90
2018-12-06T07:07:07.070Z,1001.94
2018-12-06T07:08:07.074Z,1001.92
2018-12-06T07:09:07.048Z,1001.92
2018-12-06T07:10:07.039Z,1001.97
2018-12-06T07:11:07.075Z,1002.03
2018-12-06T07:12:07.022Z,1001.95
2018-12-06T07:13:07.009Z,1002.00
2018-12-06T07:14:07.001Z,1001.97
2018-12-06T07:15:07.077Z,1002.00
2018-12-06T07:16:06.981Z,1001.98
2018-12-06T07:17:07.008Z,1001.98
2018-12-06T07:18:06.960Z,1001.99
2018-12-06T07:19:06.947Z,1001.99
2018-12-06T07:20:06.941Z,1001.99
2018-12-06T07:21:06.924Z,1001.97
2018-12-06T07:22:07.009Z,1001.98
2018-12-06T07:23:06.971Z,1001.99
2018-12-06T07:24:06.896Z,1002.02
2018-12-06T07:25:06.890Z,1002.02
2018-12-06T07:26:06.870Z,1002.01
2018-12-06T07:27:06.861Z,1002.01
2018-12-06T07:28:06.854Z,1002.02
2018-12-06T07:29:07.226Z,1001.95
2018-12-06T07:30:12.274Z,1001.94
2018-12-06T07:32:21.854Z,1001.94
2018-12-06T07:33:21.839Z,1001.98
2018-12-06T07:34:21.856Z,1001.95
2018-12-06T07:35:21.818Z,1001.90
2018-12-06T07:36:21.811Z,1001.94
2018-12-06T07:37:21.790Z,1001.97
2018-12-06T07:38:21.784Z,1001.98
2018-12-06T07:39:21.776Z,1002.01
2018-12-06T07:40:21.818Z,1002.05
2018-12-06T07:41:21.754Z,1002.01
2018-12-06T07:42:21.741Z,1002.05
2018-12-06T07:43:23.009Z,1002.02
2018-12-06T07:44:21.718Z,1002.06
2018-12-06T07:45:21.710Z,1002.00
2018-12-06T07:46:21.769Z,1002.02
2018-12-06T07:47:21.683Z,1002.02
2018-12-06T07:48:21.678Z,1002.03
2018-12-06T07:49:21.676Z,1002.03
2018-12-06T07:50:21.652Z,1002.05
2018-12-06T07:51:21.721Z,1002.13
2018-12-06T07:52:21.653Z,1002.12
2018-12-06T07:53:21.625Z,1002.12
2018-12-06T07:54:21.618Z,1002.16
2018-12-06T07:55:21.610Z,1002.14
2018-12-06T07:56:21.592Z,1002.13
2018-12-06T07:57:21.578Z,1002.16
2018-12-06T07:58:21.613Z,1002.16
2018-12-06T07:59:21.557Z,1002.17
2018-12-06T08:00:21.549Z,1002.22
2018-12-06T08:01:21.543Z,1002.20
2018-12-06T08:02:32.207Z,1002.23
2018-12-06T08:03:21.519Z,1002.19
2018-12-06T08:04:21.878Z,1002.15
2018-12-06T08:05:21.495Z,1002.15
2018-12-06T08:06:21.482Z,1002.14
2018-12-06T08:07:21.477Z,1002.13
2018-12-06T08:08:21.460Z,1002.12
2018-12-06T08:09:21.455Z,1002.16
2018-12-06T08:10:21.486Z,1002.18
2018-12-06T08:11:21.433Z,1002.17
2018-12-06T08:12:21.429Z,1002.21
2018-12-06T08:13:21.411Z,1002.19
2018-12-06T08:14:21.397Z,1002.20
2018-12-06T08:15:21.394Z,1002.20
2018-12-06T08:16:21.420Z,1002.20
2018-12-06T08:17:21.364Z,1002.20
2018-12-06T08:18:21.358Z,1002.19
2018-12-06T08:19:21.352Z,1002.21
2018-12-06T08:20:21.335Z,1002.18
2018-12-06T08:21:21.327Z,1002.24
2018-12-06T08:22:21.357Z,1002.20
2018-12-06T08:23:21.316Z,1002.18
2018-12-06T08:24:21.292Z,1002.16
2018-12-06T08:25:21.280Z,1002.21
2018-12-06T08:26:21.273Z,1002.20
2018-12-06T08:27:21.268Z,1002.23
2018-12-06T08:28:21.335Z,1002.21
2018-12-06T08:29:21.247Z,1002.23
2018-12-06T08:30:21.237Z,1002.22
2018-12-06T08:31:21.222Z,1002.21
2018-12-06T08:32:21.211Z,1002.22
2018-12-06T08:33:32.841Z,1002.24
2018-12-06T08:34:21.187Z,1002.27
2018-12-06T08:35:21.178Z,1002.28
2018-12-06T08:36:21.168Z,1002.24
2018-12-06T08:37:21.155Z,1002.31
2018-12-06T08:38:21.154Z,1002.31
2018-12-06T08:39:21.237Z,1002.28
2018-12-06T08:40:21.123Z,1002.39
2018-12-06T08:41:21.117Z,1002.38
2018-12-06T08:42:21.102Z,1002.34
2018-12-06T08:43:21.091Z,1002.40
2018-12-06T08:44:21.815Z,1002.34
2018-12-06T08:45:21.096Z,1002.36
2018-12-06T08:46:21.063Z,1002.36
2018-12-06T08:47:21.053Z,1002.35
2018-12-06T08:48:21.035Z,1002.40
2018-12-06T08:49:21.025Z,1002.40
2018-12-06T08:50:21.278Z,1002.37
2018-12-06T08:51:21.050Z,1002.44
2018-12-06T08:52:21.004Z,1002.40
2018-12-06T08:53:20.987Z,1002.42
2018-12-06T08:54:20.974Z,1002.40
2018-12-06T08:55:20.968Z,1002.41
2018-12-06T08:56:20.951Z,1002.42
2018-12-06T08:57:20.981Z,1002.44
2018-12-06T08:58:20.930Z,1002.44
2018-12-06T08:59:20.922Z,1002.36
2018-12-06T09:00:20.906Z,1002.35
2018-12-06T09:01:20.906Z,1002.35
2018-12-06T09:02:20.892Z,1002.33
2018-12-06T09:03:21.349Z,1002.30
2018-12-06T09:04:32.106Z,1002.30
2018-12-06T09:05:20.853Z,1002.34
2018-12-06T09:06:20.846Z,1002.36
2018-12-06T09:07:20.839Z,1002.39
2018-12-06T09:08:20.828Z,1002.42
2018-12-06T09:09:20.857Z,1002.38
2018-12-06T09:10:20.804Z,1002.40
2018-12-06T09:11:20.794Z,1002.37
2018-12-06T09:12:20.790Z,1002.42
2018-12-06T09:13:20.771Z,1002.43
2018-12-06T09:14:20.763Z,1002.37
2018-12-06T09:15:20.866Z,1002.39
2018-12-06T09:16:20.735Z,1002.42
2018-12-06T09:17:20.728Z,1002.48
2018-12-06T09:18:20.717Z,1002.49
2018-12-06T09:19:20.703Z,1002.54
2018-12-06T09:20:20.699Z,1002.51
2018-12-06T09:21:20.730Z,1002.46
2018-12-06T09:22:20.678Z,1002.52
2018-12-06T09:23:20.667Z,1002.54
2018-12-06T09:24:20.651Z,1002.50
2018-12-06T09:25:21.214Z,1002.55
2018-12-06T09:26:20.631Z,1002.57
2018-12-06T09:27:20.655Z,1002.64
2018-12-06T09:28:20.612Z,1002.59
2018-12-06T09:29:20.606Z,1002.60
2018-12-06T09:30:20.587Z,1002.61
2018-12-06T09:31:20.581Z,1002.62
2018-12-06T09:32:20.570Z,1002.58
2018-12-06T09:33:22.114Z,1002.61
2018-12-06T09:34:20.542Z,1002.67
2018-12-06T09:35:30.861Z,1002.70
2018-12-06T09:36:20.525Z,1002.69
2018-12-06T09:37:20.515Z,1002.66
2018-12-06T09:38:20.504Z,1002.64
2018-12-06T09:39:20.533Z,1002.64
2018-12-06T09:40:20.484Z,1002.67
2018-12-06T09:41:20.471Z,1002.71
2018-12-06T09:42:20.467Z,1002.69
2018-12-06T09:43:20.458Z,1002.71
2018-12-06T09:44:20.437Z,1002.74
2018-12-06T09:45:20.882Z,1002.70
2018-12-06T09:46:20.414Z,1002.72
2018-12-06T09:47:20.406Z,1002.72
2018-12-06T09:48:20.405Z,1002.78
2018-12-06T09:49:20.391Z,1002.73
2018-12-06T09:50:20.418Z,1002.75
2018-12-06T09:51:20.875Z,1002.72
2018-12-06T09:52:20.355Z,1002.74
2018-12-06T09:53:20.342Z,1002.71
2018-12-06T09:54:20.336Z,1002.77
2018-12-06T09:55:20.323Z,1002.76
2018-12-06T09:56:20.311Z,1002.75
2018-12-06T09:57:20.338Z,1002.72
2018-12-06T09:58:20.288Z,1002.75
2018-12-06T09:59:20.278Z,1002.83
2018-12-06T10:00:20.272Z,1002.78
2018-12-06T10:01:20.259Z,1002.80
2018-12-06T10:02:20.247Z,1002.85
2018-12-06T10:03:20.274Z,1002.82
2018-12-06T10:04:20.224Z,1002.84
2018-12-06T10:05:20.221Z,1002.82
2018-12-06T10:06:30.766Z,1002.82
2018-12-06T10:07:20.194Z,1002.80
2018-12-06T10:08:20.184Z,1002.79
2018-12-06T10:09:20.218Z,1002.78
2018-12-06T10:10:20.164Z,1002.77
2018-12-06T10:11:20.159Z,1002.85
2018-12-06T10:12:20.145Z,1002.81
2018-12-06T10:13:20.131Z,1002.77
2018-12-06T10:14:20.124Z,1002.80
2018-12-06T10:15:20.891Z,1002.84
2018-12-06T10:16:20.096Z,1002.82
2018-12-06T10:17:20.092Z,1002.84
2018-12-06T10:18:20.082Z,1002.83
2018-12-06T10:19:20.067Z,1002.79
2018-12-06T10:20:27.893Z,1002.86
2018-12-06T10:21:20.049Z,1002.84
2018-12-06T10:22:20.033Z,1002.91
2018-12-06T10:23:20.028Z,1002.83
2018-12-06T10:24:20.018Z,1002.89
2018-12-06T10:25:20.002Z,1002.87
2018-12-06T10:26:20.007Z,1002.87
2018-12-06T10:27:19.988Z,1002.90
2018-12-06T10:28:19.970Z,1002.86
2018-12-06T10:29:19.962Z,1002.87
2018-12-06T10:30:19.949Z,1002.89
2018-12-06T10:31:19.939Z,1002.91
2018-12-06T10:32:19.973Z,1002.86
2018-12-06T10:33:19.925Z,1002.89
2018-12-06T10:34:19.904Z,1002.89
2018-12-06T10:35:19.899Z,1002.93
2018-12-06T10:36:19.882Z,1002.95
2018-12-06T10:37:19.870Z,1002.94
2018-12-06T10:38:19.908Z,1002.95
2018-12-06T10:39:19.849Z,1002.93
2018-12-06T10:40:19.840Z,1002.96
2018-12-06T10:41:19.833Z,1002.94
2018-12-06T10:42:19.819Z,1002.94
2018-12-06T10:43:19.810Z,1003.00
2018-12-06T10:44:19.841Z,1002.96
2018-12-06T10:45:19.787Z,1002.94
2018-12-06T10:46:19.783Z,1002.93
2018-12-06T10:47:19.763Z,1002.95
2018-12-06T10:48:19.752Z,1002.98
2018-12-06T10:49:19.750Z,1002.97
2018-12-06T10:50:19.787Z,1002.97
2018-12-06T10:51:30.883Z,1002.95
2018-12-06T10:52:19.717Z,1002.87
2018-12-06T10:53:19.704Z,1002.87
2018-12-06T10:54:19.693Z,1002.91
2018-12-06T10:55:19.682Z,1002.91
2018-12-06T10:56:19.756Z,1002.87
2018-12-06T10:57:19.657Z,1002.86
2018-12-06T10:58:19.652Z,1002.85
2018-12-06T10:59:19.644Z,1002.84
2018-12-06T11:00:19.628Z,1002.84
2018-12-06T11:01:19.614Z,1002.90
2018-12-06T11:02:19.638Z,1002.87
2018-12-06T11:03:19.600Z,1002.89
2018-12-06T11:04:19.591Z,1002.93
2018-12-06T11:05:19.578Z,1002.92
2018-12-06T11:06:19.559Z,1002.91
2018-12-06T11:07:19.555Z,1002.93
2018-12-06T11:08:19.556Z,1002.92
2018-12-06T11:09:19.529Z,1002.85
2018-12-06T11:10:19.541Z,1002.89
2018-12-06T11:11:19.508Z,1002.84
2018-12-06T11:12:19.502Z,1002.89
2018-12-06T11:13:19.486Z,1002.86
2018-12-06T11:14:19.493Z,1002.85
2018-12-06T11:15:19.471Z,1002.87
2018-12-06T11:16:19.465Z,1002.88
2018-12-06T11:17:19.444Z,1002.92
2018-12-06T11:18:19.436Z,1002.91
2018-12-06T11:19:19.423Z,1002.91
2018-12-06T11:20:19.426Z,1002.88
2018-12-06T11:21:19.406Z,1002.88
2018-12-06T11:22:31.098Z,1002.89
2018-12-06T11:23:19.377Z,1002.86
2018-12-06T11:24:19.366Z,1002.89
2018-12-06T11:25:19.363Z,1002.90
2018-12-06T11:26:19.924Z,1002.92
2018-12-06T11:27:19.342Z,1002.87
2018-12-06T11:28:19.326Z,1002.92
2018-12-06T11:29:19.318Z,1002.92
2018-12-06T11:30:19.303Z,1003.01
2018-12-06T11:31:19.301Z,1002.98
2018-12-06T11:32:19.417Z,1002.98
2018-12-06T11:33:19.279Z,1002.97
2018-12-06T11:34:19.271Z,1002.95
2018-12-06T11:35:19.252Z,1002.98
2018-12-06T11:36:19.243Z,1003.04
2018-12-06T11:37:19.232Z,1003.05
2018-12-06T11:38:19.258Z,1003.01
2018-12-06T11:39:19.210Z,1003.04
2018-12-06T11:40:19.203Z,1003.02
2018-12-06T11:41:19.186Z,1003.01
2018-12-06T11:42:19.181Z,1003.04
2018-12-06T11:43:19.164Z,1003.00
2018-12-06T11:44:19.198Z,1002.98
2018-12-06T11:45:19.150Z,1003.04
2018-12-06T11:46:19.137Z,1002.98
2018-12-06T11:47:19.130Z,1003.01
2018-12-06T11:48:26.669Z,1003.03
2018-12-06T11:49:20.416Z,1003.05
2018-12-06T11:50:19.091Z,1003.05
2018-12-06T11:51:19.085Z,1003.08
2018-12-06T11:52:19.082Z,1003.05
2018-12-06T11:53:29.843Z,1003.08
2018-12-06T11:54:19.049Z,1003.04
2018-12-06T11:55:20.055Z,1003.02
2018-12-06T11:56:19.030Z,1003.02
2018-12-06T11:57:19.028Z,1003.01
2018-12-06T11:58:19.006Z,1003.01
2018-12-06T11:59:18.995Z,1003.05
2018-12-06T12:00:18.985Z,1003.03
2018-12-06T12:01:19.010Z,1003.01
2018-12-06T12:02:19.054Z,1003.03
2018-12-06T12:03:18.958Z,1003.07
2018-12-06T12:04:18.941Z,1003.01
2018-12-06T12:05:18.933Z,1003.02
2018-12-06T12:06:18.928Z,1003.02